sensor_id;sensor_type;location;lat;lon;timestamp;pressure;altitude;pressure_sealevel;temperature;humidity
79242;BME280;68670;48.720;9.118;2023-06-26T00:00:02;96795.09;;;19.31;53.40
79242;BME280;68670;48.720;9.118;2023-06-26T00:02:32;96802.44;;;19.22;55.17
79242;BME280;68670;48.720;9.118;2023-06-26T00:04:58;96803.34;;;19.18;54.92
79242;BME280;68670;48.720;9.118;2023-06-26T00:07:23;96809.41;;;19.20;53.42
79242;BME280;68670;48.720;9.118;2023-06-26T00:09:48;96806.34;;;19.21;53.59
79242;BME280;68670;48.720;9.118;2023-06-26T00:12:14;96802.38;;;19.08;53.97
79242;BME280;68670;48.720;9.118;2023-06-26T00:14:39;96799.09;;;19.06;55.56
79242;BME280;68670;48.720;9.118;2023-06-26T00:17:04;96805.66;;;18.92;54.66
79242;BME280;68670;48.720;9.118;2023-06-26T00:19:31;96808.31;;;19.02;55.09
79242;BME280;68670;48.720;9.118;2023-06-26T00:21:58;96801.75;;;18.93;55.50
79242;BME280;68670;48.720;9.118;2023-06-26T00:24:23;96800.63;;;18.94;55.80
79242;BME280;68670;48.720;9.118;2023-06-26T00:26:48;96810.09;;;18.93;56.16
79242;BME280;68670;48.720;9.118;2023-06-26T00:29:14;96800.63;;;18.94;56.46
79242;BME280;68670;48.720;9.118;2023-06-26T00:31:40;96806.47;;;18.73;58.17
79242;BME280;68670;48.720;9.118;2023-06-26T00:34:05;96795.97;;;18.70;57.22
79242;BME280;68670;48.720;9.118;2023-06-26T00:36:31;96801.00;;;18.68;57.24
79242;BME280;68670;48.720;9.118;2023-06-26T00:38:58;96797.75;;;18.61;57.34
79242;BME280;68670;48.720;9.118;2023-06-26T00:41:24;96806.69;;;18.53;57.23
79242;BME280;68670;48.720;9.118;2023-06-26T00:43:49;96802.09;;;18.43;58.43
79242;BME280;68670;48.720;9.118;2023-06-26T00:46:17;96801.97;;;18.30;59.68
79242;BME280;68670;48.720;9.118;2023-06-26T00:48:44;96800.22;;;18.39;58.63
79242;BME280;68670;48.720;9.118;2023-06-26T00:51:11;96797.78;;;18.32;58.68
79242;BME280;68670;48.720;9.118;2023-06-26T00:53:36;96798.09;;;18.31;57.79
79242;BME280;68670;48.720;9.118;2023-06-26T00:56:05;96800.91;;;18.26;57.97
79242;BME280;68670;48.720;9.118;2023-06-26T00:58:30;96797.59;;;18.24;60.24
79242;BME280;68670;48.720;9.118;2023-06-26T01:00:57;96801.16;;;18.29;57.14
79242;BME280;68670;48.720;9.118;2023-06-26T01:03:26;96798.19;;;18.21;57.26
79242;BME280;68670;48.720;9.118;2023-06-26T01:05:52;96795.38;;;18.26;57.67
79242;BME280;68670;48.720;9.118;2023-06-26T01:08:22;96790.31;;;18.09;57.72
79242;BME280;68670;48.720;9.118;2023-06-26T01:10:48;96793.94;;;18.04;59.73
79242;BME280;68670;48.720;9.118;2023-06-26T01:13:17;96787.09;;;17.97;58.10
79242;BME280;68670;48.720;9.118;2023-06-26T01:15:45;96782.03;;;18.04;58.61
79242;BME280;68670;48.720;9.118;2023-06-26T01:18:11;96783.09;;;18.08;58.48
79242;BME280;68670;48.720;9.118;2023-06-26T01:20:38;96787.00;;;18.07;58.48
79242;BME280;68670;48.720;9.118;2023-06-26T01:28:42;96782.97;;;17.94;59.78
79242;BME280;68670;48.720;9.118;2023-06-26T01:31:08;96784.03;;;17.98;58.99
79242;BME280;68670;48.720;9.118;2023-06-26T01:33:36;96782.97;;;17.94;59.65
79242;BME280;68670;48.720;9.118;2023-06-26T01:36:07;96776.84;;;17.97;57.22
79242;BME280;68670;48.720;9.118;2023-06-26T01:38:33;96777.41;;;17.94;58.78
79242;BME280;68670;48.720;9.118;2023-06-26T01:40:59;96774.59;;;17.99;58.79
79242;BME280;68670;48.720;9.118;2023-06-26T01:46:40;96769.97;;;18.19;55.11
79242;BME280;68670;48.720;9.118;2023-06-26T01:49:21;96772.19;;;18.17;57.58
79242;BME280;68670;48.720;9.118;2023-06-26T01:51:58;96770.06;;;18.08;57.93
79242;BME280;68670;48.720;9.118;2023-06-26T01:54:33;96760.81;;;18.18;56.33
79242;BME280;68670;48.720;9.118;2023-06-26T01:57:01;96760.22;;;18.21;55.42
79242;BME280;68670;48.720;9.118;2023-06-26T01:59:28;96756.69;;;18.58;53.48
79242;BME280;68670;48.720;9.118;2023-06-26T02:02:00;96756.31;;;18.89;52.41
79242;BME280;68670;48.720;9.118;2023-06-26T02:04:26;96761.03;;;19.07;51.54
79242;BME280;68670;48.720;9.118;2023-06-26T02:06:51;96753.75;;;19.11;51.44
79242;BME280;68670;48.720;9.118;2023-06-26T02:09:16;96766.88;;;19.24;50.89
79242;BME280;68670;48.720;9.118;2023-06-26T02:11:45;96760.72;;;19.27;51.05
79242;BME280;68670;48.720;9.118;2023-06-26T02:14:10;96757.59;;;19.15;53.50
79242;BME280;68670;48.720;9.118;2023-06-26T02:16:38;96763.75;;;19.12;52.01
79242;BME280;68670;48.720;9.118;2023-06-26T02:19:03;96762.09;;;19.11;52.29
79242;BME280;68670;48.720;9.118;2023-06-26T02:21:29;96761.13;;;19.02;53.65
79242;BME280;68670;48.720;9.118;2023-06-26T02:23:54;96767.91;;;19.28;51.11
79242;BME280;68670;48.720;9.118;2023-06-26T02:26:19;96761.59;;;19.41;50.73
79242;BME280;68670;48.720;9.118;2023-06-26T02:28:47;96762.81;;;19.35;51.38
79242;BME280;68670;48.720;9.118;2023-06-26T02:31:12;96762.06;;;19.49;50.32
79242;BME280;68670;48.720;9.118;2023-06-26T02:33:41;96763.00;;;19.58;50.10
79242;BME280;68670;48.720;9.118;2023-06-26T02:36:06;96761.44;;;19.52;50.18
79242;BME280;68670;48.720;9.118;2023-06-26T02:38:32;96769.50;;;19.34;52.21
79242;BME280;68670;48.720;9.118;2023-06-26T02:40:57;96767.31;;;19.31;51.23
79242;BME280;68670;48.720;9.118;2023-06-26T02:43:22;96768.38;;;19.35;50.75
79242;BME280;68670;48.720;9.118;2023-06-26T02:45:48;96773.31;;;19.38;50.53
79242;BME280;68670;48.720;9.118;2023-06-26T02:48:13;96765.66;;;19.30;51.09
79242;BME280;68670;48.720;9.118;2023-06-26T02:50:38;96768.22;;;19.27;51.21
79242;BME280;68670;48.720;9.118;2023-06-26T02:53:04;96768.69;;;19.15;52.02
79242;BME280;68670;48.720;9.118;2023-06-26T02:55:31;96766.88;;;19.24;51.36
79242;BME280;68670;48.720;9.118;2023-06-26T02:57:57;96768.78;;;19.10;53.30
79242;BME280;68670;48.720;9.118;2023-06-26T03:00:22;96770.44;;;19.11;51.99
79242;BME280;68670;48.720;9.118;2023-06-26T03:02:47;96770.13;;;19.12;51.83
79242;BME280;68670;48.720;9.118;2023-06-26T03:05:15;96767.25;;;19.18;51.69
79242;BME280;68670;48.720;9.118;2023-06-26T03:07:43;96760.25;;;19.20;51.75
79242;BME280;68670;48.720;9.118;2023-06-26T03:10:09;96768.91;;;19.19;51.88
79242;BME280;68670;48.720;9.118;2023-06-26T03:12:34;96762.97;;;19.25;51.48
79242;BME280;68670;48.720;9.118;2023-06-26T03:14:59;96762.44;;;19.23;51.76
79242;BME280;68670;48.720;9.118;2023-06-26T03:17:25;96769.56;;;19.29;51.50
79242;BME280;68670;48.720;9.118;2023-06-26T03:19:50;96761.75;;;19.31;51.66
79242;BME280;68670;48.720;9.118;2023-06-26T03:22:15;96754.94;;;19.24;51.70
79242;BME280;68670;48.720;9.118;2023-06-26T03:24:43;96766.72;;;19.34;51.45
79242;BME280;68670;48.720;9.118;2023-06-26T03:27:08;96767.91;;;19.28;51.60
79242;BME280;68670;48.720;9.118;2023-06-26T03:29:35;96769.78;;;19.33;51.58
79242;BME280;68670;48.720;9.118;2023-06-26T03:32:00;96769.28;;;19.31;51.93
79242;BME280;68670;48.720;9.118;2023-06-26T03:34:25;96763.50;;;19.27;52.04
79242;BME280;68670;48.720;9.118;2023-06-26T03:36:53;96763.94;;;19.34;51.69
79242;BME280;68670;48.720;9.118;2023-06-26T03:39:18;96767.31;;;19.31;51.84
79242;BME280;68670;48.720;9.118;2023-06-26T03:41:43;96769.56;;;19.29;52.14
79242;BME280;68670;48.720;9.118;2023-06-26T03:44:11;96772.88;;;19.31;51.92
79242;BME280;68670;48.720;9.118;2023-06-26T03:46:37;96769.66;;;19.24;52.42
79242;BME280;68670;48.720;9.118;2023-06-26T03:49:02;96765.66;;;19.30;52.22
79242;BME280;68670;48.720;9.118;2023-06-26T03:51:30;96775.72;;;19.26;52.33
79242;BME280;68670;48.720;9.118;2023-06-26T03:53:57;96771.00;;;19.27;52.24
79242;BME280;68670;48.720;9.118;2023-06-26T03:56:25;96769.50;;;19.34;51.66
79242;BME280;68670;48.720;9.118;2023-06-26T03:58:50;96770.03;;;19.36;51.57
79242;BME280;68670;48.720;9.118;2023-06-26T04:01:18;96764.91;;;19.43;51.23
79242;BME280;68670;48.720;9.118;2023-06-26T04:03:45;96775.59;;;19.50;51.09
79242;BME280;68670;48.720;9.118;2023-06-26T04:06:10;96773.09;;;19.54;50.70
79242;BME280;68670;48.720;9.118;2023-06-26T04:08:35;96780.34;;;19.50;50.86
79242;BME280;68670;48.720;9.118;2023-06-26T04:11:03;96778.13;;;19.52;50.84
79242;BME280;68670;48.720;9.118;2023-06-26T04:13:28;96770.16;;;19.64;50.50
79242;BME280;68670;48.720;9.118;2023-06-26T04:15:53;96773.59;;;19.56;50.74
79242;BME280;68670;48.720;9.118;2023-06-26T04:18:19;96777.03;;;19.66;50.35
79242;BME280;68670;48.720;9.118;2023-06-26T04:23:30;96778.41;;;19.69;50.37
79242;BME280;68670;48.720;9.118;2023-06-26T04:25:56;96772.09;;;19.63;50.36
79242;BME280;68670;48.720;9.118;2023-06-26T04:28:23;96781.78;;;19.66;50.47
79242;BME280;68670;48.720;9.118;2023-06-26T04:30:50;96782.31;;;19.68;50.38
79242;BME280;68670;48.720;9.118;2023-06-26T04:33:16;96783.34;;;19.72;50.41
79242;BME280;68670;48.720;9.118;2023-06-26T04:35:41;96777.78;;;19.72;50.70
79242;BME280;68670;48.720;9.118;2023-06-26T04:38:13;96784.19;;;19.86;50.02
79242;BME280;68670;48.720;9.118;2023-06-26T04:40:39;96770.91;;;19.83;50.09
79242;BME280;68670;48.720;9.118;2023-06-26T04:43:07;96772.47;;;19.89;49.89
79242;BME280;68670;48.720;9.118;2023-06-26T04:45:32;96772.28;;;19.99;49.55
79242;BME280;68670;48.720;9.118;2023-06-26T04:47:57;96772.28;;;19.99;49.51
79242;BME280;68670;48.720;9.118;2023-06-26T04:50:25;96774.38;;;20.07;49.21
79242;BME280;68670;48.720;9.118;2023-06-26T04:52:51;96762.03;;;20.13;49.10
79242;BME280;68670;48.720;9.118;2023-06-26T04:55:16;96774.28;;;20.12;49.36
79242;BME280;68670;48.720;9.118;2023-06-26T04:57:41;96764.06;;;20.22;49.23
79242;BME280;68670;48.720;9.118;2023-06-26T05:00:07;96766.31;;;20.20;49.21
79242;BME280;68670;48.720;9.118;2023-06-26T05:02:36;96768.41;;;20.28;49.26
79242;BME280;68670;48.720;9.118;2023-06-26T05:05:04;96767.78;;;20.31;48.91
79242;BME280;68670;48.720;9.118;2023-06-26T05:07:29;96768.25;;;20.38;49.17
79242;BME280;68670;48.720;9.118;2023-06-26T05:09:56;96760.78;;;20.33;49.16
79242;BME280;68670;48.720;9.118;2023-06-26T05:12:24;96765.53;;;20.33;49.60
79242;BME280;68670;48.720;9.118;2023-06-26T05:14:49;96760.91;;;20.42;49.46
79242;BME280;68670;48.720;9.118;2023-06-26T05:17:14;96752.13;;;20.49;49.23
79242;BME280;68670;48.720;9.118;2023-06-26T05:19:40;96764.09;;;20.49;49.39
79242;BME280;68670;48.720;9.118;2023-06-26T05:22:08;96762.25;;;20.58;49.47
79242;BME280;68670;48.720;9.118;2023-06-26T05:24:38;96760.19;;;20.64;49.30
79242;BME280;68670;48.720;9.118;2023-06-26T05:27:04;96771.50;;;20.67;49.74
79242;BME280;68670;48.720;9.118;2023-06-26T05:29:31;96772.53;;;20.71;49.58
79242;BME280;68670;48.720;9.118;2023-06-26T05:31:57;96766.88;;;20.76;49.65
79242;BME280;68670;48.720;9.118;2023-06-26T05:34:25;96766.72;;;20.82;49.81
79242;BME280;68670;48.720;9.118;2023-06-26T05:36:57;96769.81;;;20.94;49.81
79242;BME280;68670;48.720;9.118;2023-06-26T05:39:24;96771.66;;;20.98;49.94
79242;BME280;68670;48.720;9.118;2023-06-26T05:41:50;96767.31;;;21.06;49.89
79242;BME280;68670;48.720;9.118;2023-06-26T05:44:16;96780.47;;;21.14;49.23
79242;BME280;68670;48.720;9.118;2023-06-26T05:46:41;96775.53;;;21.25;49.40
79242;BME280;68670;48.720;9.118;2023-06-26T05:49:09;96779.44;;;21.37;48.93
79242;BME280;68670;48.720;9.118;2023-06-26T05:51:35;96770.94;;;21.42;49.38
79242;BME280;68670;48.720;9.118;2023-06-26T05:54:03;96769.84;;;21.52;48.78
79242;BME280;68670;48.720;9.118;2023-06-26T05:56:29;96769.22;;;21.55;48.86
79242;BME280;68670;48.720;9.118;2023-06-26T05:58:57;96769.38;;;21.72;48.05
79242;BME280;68670;48.720;9.118;2023-06-26T06:01:23;96770.19;;;21.73;48.26
79242;BME280;68670;48.720;9.118;2023-06-26T06:03:49;96774.59;;;21.96;47.33
79242;BME280;68670;48.720;9.118;2023-06-26T06:06:15;96764.03;;;22.07;47.14
79242;BME280;68670;48.720;9.118;2023-06-26T06:08:41;96768.28;;;22.13;46.98
79242;BME280;68670;48.720;9.118;2023-06-26T06:11:06;96764.03;;;22.16;46.43
79242;BME280;68670;48.720;9.118;2023-06-26T06:13:31;96769.41;;;22.34;46.18
79242;BME280;68670;48.720;9.118;2023-06-26T06:15:57;96770.91;;;22.49;45.55
79242;BME280;68670;48.720;9.118;2023-06-26T06:18:22;96767.19;;;22.62;44.64
79242;BME280;68670;48.720;9.118;2023-06-26T06:20:48;96773.66;;;22.71;45.03
79242;BME280;68670;48.720;9.118;2023-06-26T06:23:15;96774.00;;;22.78;45.03
79242;BME280;68670;48.720;9.118;2023-06-26T06:25:41;96764.81;;;22.87;44.65
79242;BME280;68670;48.720;9.118;2023-06-26T06:28:08;96766.81;;;22.95;43.83
79242;BME280;68670;48.720;9.118;2023-06-26T06:30:33;96764.19;;;23.07;44.31
79242;BME280;68670;48.720;9.118;2023-06-26T06:32:59;96769.28;;;23.13;44.25
79242;BME280;68670;48.720;9.118;2023-06-26T06:35:27;96771.78;;;23.32;43.36
79242;BME280;68670;48.720;9.118;2023-06-26T06:37:52;96768.31;;;23.44;42.55
79242;BME280;68670;48.720;9.118;2023-06-26T06:40:18;96777.75;;;23.57;42.09
79242;BME280;68670;48.720;9.118;2023-06-26T06:42:43;96770.00;;;23.62;41.89
79242;BME280;68670;48.720;9.118;2023-06-26T06:45:09;96769.50;;;23.69;42.21
79242;BME280;68670;48.720;9.118;2023-06-26T06:47:39;96769.81;;;23.76;41.98
79242;BME280;68670;48.720;9.118;2023-06-26T06:50:05;96772.28;;;23.86;41.40
79242;BME280;68670;48.720;9.118;2023-06-26T06:52:39;96782.97;;;24.01;42.26
79242;BME280;68670;48.720;9.118;2023-06-26T06:55:14;96776.47;;;24.18;40.88
79242;BME280;68670;48.720;9.118;2023-06-26T06:57:49;96764.63;;;24.21;40.48
79242;BME280;68670;48.720;9.118;2023-06-26T07:00:15;96781.25;;;24.26;40.73
79242;BME280;68670;48.720;9.118;2023-06-26T07:02:43;96773.03;;;24.30;40.56
79242;BME280;68670;48.720;9.118;2023-06-26T07:05:09;96769.84;;;24.40;39.93
79242;BME280;68670;48.720;9.118;2023-06-26T07:07:39;96782.50;;;24.46;40.54
79242;BME280;68670;48.720;9.118;2023-06-26T07:10:10;96771.59;;;24.53;39.87
79242;BME280;68670;48.720;9.118;2023-06-26T07:12:35;96773.75;;;24.56;40.39
79242;BME280;68670;48.720;9.118;2023-06-26T07:15:04;96773.38;;;24.66;40.16
79242;BME280;68670;48.720;9.118;2023-06-26T07:17:34;96780.41;;;24.72;39.85
79242;BME280;68670;48.720;9.118;2023-06-26T07:20:05;96773.44;;;24.78;39.61
79242;BME280;68670;48.720;9.118;2023-06-26T07:22:35;96781.47;;;24.89;39.67
79242;BME280;68670;48.720;9.118;2023-06-26T07:25:01;96780.66;;;24.97;39.17
79242;BME280;68670;48.720;9.118;2023-06-26T07:27:26;96772.78;;;25.11;39.20
79242;BME280;68670;48.720;9.118;2023-06-26T07:29:51;96779.41;;;25.06;39.88
79242;BME280;68670;48.720;9.118;2023-06-26T07:32:19;96772.88;;;25.23;39.15
79242;BME280;68670;48.720;9.118;2023-06-26T07:34:44;96774.09;;;25.34;39.28
79242;BME280;68670;48.720;9.118;2023-06-26T07:37:10;96782.31;;;25.39;38.96
79242;BME280;68670;48.720;9.118;2023-06-26T07:39:35;96784.44;;;25.42;38.62
79242;BME280;68670;48.720;9.118;2023-06-26T07:42:06;96788.22;;;25.47;39.17
79242;BME280;68670;48.720;9.118;2023-06-26T07:44:34;96770.69;;;25.50;39.41
79242;BME280;68670;48.720;9.118;2023-06-26T07:46:59;96777.25;;;25.54;39.10
79242;BME280;68670;48.720;9.118;2023-06-26T07:49:30;96781.25;;;25.73;39.67
79242;BME280;68670;48.720;9.118;2023-06-26T07:51:55;96776.03;;;25.84;38.49
79242;BME280;68670;48.720;9.118;2023-06-26T07:54:23;96781.91;;;25.91;38.30
79242;BME280;68670;48.720;9.118;2023-06-26T07:57:03;96787.06;;;26.01;37.79
79242;BME280;68670;48.720;9.118;2023-06-26T07:59:30;96779.03;;;26.12;38.09
79242;BME280;68670;48.720;9.118;2023-06-26T08:01:56;96777.56;;;26.27;37.42
79242;BME280;68670;48.720;9.118;2023-06-26T08:04:26;96775.75;;;26.43;36.23
79242;BME280;68670;48.720;9.118;2023-06-26T08:06:54;96771.91;;;26.48;35.23
79242;BME280;68670;48.720;9.118;2023-06-26T08:09:24;96775.09;;;26.58;34.63
79242;BME280;68670;48.720;9.118;2023-06-26T08:11:49;96775.06;;;26.70;34.38
79242;BME280;68670;48.720;9.118;2023-06-26T08:14:16;96763.59;;;26.75;34.40
79242;BME280;68670;48.720;9.118;2023-06-26T08:16:44;96765.50;;;26.84;35.14
79242;BME280;68670;48.720;9.118;2023-06-26T08:19:15;96769.47;;;26.95;34.81
79242;BME280;68670;48.720;9.118;2023-06-26T08:21:41;96769.47;;;27.07;35.05
79242;BME280;68670;48.720;9.118;2023-06-26T08:24:06;96764.56;;;27.16;33.89
79242;BME280;68670;48.720;9.118;2023-06-26T08:26:32;96767.13;;;27.21;33.93
79242;BME280;68670;48.720;9.118;2023-06-26T08:28:57;96750.47;;;27.28;34.59
79242;BME280;68670;48.720;9.118;2023-06-26T08:31:23;96767.78;;;27.42;33.68
79242;BME280;68670;48.720;9.118;2023-06-26T08:33:48;96761.78;;;27.44;33.57
79242;BME280;68670;48.720;9.118;2023-06-26T08:36:25;96757.69;;;27.54;32.95
79242;BME280;68670;48.720;9.118;2023-06-26T08:38:55;96767.72;;;27.67;33.01
79242;BME280;68670;48.720;9.118;2023-06-26T08:41:21;96763.47;;;27.85;34.89
79242;BME280;68670;48.720;9.118;2023-06-26T08:43:48;96762.66;;;28.00;32.05
79242;BME280;68670;48.720;9.118;2023-06-26T08:46:19;96759.66;;;27.93;32.28
79242;BME280;68670;48.720;9.118;2023-06-26T08:49:01;96761.19;;;28.19;32.25
79242;BME280;68670;48.720;9.118;2023-06-26T08:51:34;96761.25;;;28.50;31.82
79242;BME280;68670;48.720;9.118;2023-06-26T08:54:08;96766.94;;;28.38;32.25
79242;BME280;68670;48.720;9.118;2023-06-26T08:56:41;96772.06;;;28.64;31.75
79242;BME280;68670;48.720;9.118;2023-06-26T08:59:07;96765.16;;;28.93;31.52
79242;BME280;68670;48.720;9.118;2023-06-26T09:01:35;96769.69;;;29.13;31.39
79242;BME280;68670;48.720;9.118;2023-06-26T09:04:00;96759.25;;;29.33;30.33
79242;BME280;68670;48.720;9.118;2023-06-26T09:06:26;96752.44;;;29.50;29.62
79242;BME280;68670;48.720;9.118;2023-06-26T09:08:54;96754.34;;;29.65;29.24
79242;BME280;68670;48.720;9.118;2023-06-26T09:11:22;96754.97;;;29.55;29.88
79242;BME280;68670;48.720;9.118;2023-06-26T09:13:47;96759.03;;;29.22;29.64
79242;BME280;68670;48.720;9.118;2023-06-26T09:16:13;96760.63;;;28.88;30.05
79242;BME280;68670;48.720;9.118;2023-06-26T09:18:45;96751.16;;;29.31;30.37
79242;BME280;68670;48.720;9.118;2023-06-26T09:21:11;96747.69;;;29.54;29.11
79242;BME280;68670;48.720;9.118;2023-06-26T09:23:39;96759.72;;;29.70;28.98
79242;BME280;68670;48.720;9.118;2023-06-26T09:26:07;96755.28;;;29.88;29.03
79242;BME280;68670;48.720;9.118;2023-06-26T09:28:33;96744.50;;;30.13;30.51
79242;BME280;68670;48.720;9.118;2023-06-26T09:31:05;96745.16;;;30.06;31.29
79242;BME280;68670;48.720;9.118;2023-06-26T09:33:35;96745.22;;;29.91;29.52
79242;BME280;68670;48.720;9.118;2023-06-26T09:36:07;96744.53;;;29.97;29.32
79242;BME280;68670;48.720;9.118;2023-06-26T09:38:35;96752.72;;;30.22;29.22
79242;BME280;68670;48.720;9.118;2023-06-26T09:41:01;96741.91;;;30.04;29.55
79242;BME280;68670;48.720;9.118;2023-06-26T09:43:29;96740.19;;;30.19;29.06
79242;BME280;68670;48.720;9.118;2023-06-26T09:45:56;96742.66;;;30.66;29.29
79242;BME280;68670;48.720;9.118;2023-06-26T09:48:21;96734.97;;;30.90;30.13
79242;BME280;68670;48.720;9.118;2023-06-26T09:50:47;96736.50;;;30.84;27.41
79242;BME280;68670;48.720;9.118;2023-06-26T09:53:13;96742.53;;;30.59;27.70
79242;BME280;68670;48.720;9.118;2023-06-26T09:55:39;96737.69;;;30.60;27.53
79242;BME280;68670;48.720;9.118;2023-06-26T09:58:10;96740.47;;;30.56;27.67
79242;BME280;68670;48.720;9.118;2023-06-26T10:00:42;96733.97;;;30.33;28.30
79242;BME280;68670;48.720;9.118;2023-06-26T10:03:10;96734.69;;;30.72;27.42
79242;BME280;68670;48.720;9.118;2023-06-26T10:05:38;96737.16;;;30.54;27.65
79242;BME280;68670;48.720;9.118;2023-06-26T10:08:08;96745.13;;;30.26;27.96
79242;BME280;68670;48.720;9.118;2023-06-26T10:10:36;96744.78;;;30.08;28.48
79242;BME280;68670;48.720;9.118;2023-06-26T10:13:11;96739.63;;;30.33;29.44
79242;BME280;68670;48.720;9.118;2023-06-26T10:15:40;96739.53;;;30.71;28.97
79242;BME280;68670;48.720;9.118;2023-06-26T10:18:07;96745.63;;;30.54;29.66
79242;BME280;68670;48.720;9.118;2023-06-26T10:20:35;96742.28;;;30.03;29.31
79242;BME280;68670;48.720;9.118;2023-06-26T10:23:02;96746.81;;;30.07;28.65
79242;BME280;68670;48.720;9.118;2023-06-26T10:25:34;96736.84;;;29.75;29.09
79242;BME280;68670;48.720;9.118;2023-06-26T10:28:04;96744.41;;;29.52;29.04
79242;BME280;68670;48.720;9.118;2023-06-26T10:30:34;96752.50;;;29.18;29.91
79242;BME280;68670;48.720;9.118;2023-06-26T10:33:02;96767.81;;;28.86;31.61
79242;BME280;68670;48.720;9.118;2023-06-26T10:35:30;96760.44;;;28.50;33.57
79242;BME280;68670;48.720;9.118;2023-06-26T10:38:02;96775.94;;;28.28;34.97
79242;BME280;68670;48.720;9.118;2023-06-26T10:40:59;96780.66;;;28.24;35.42
79242;BME280;68670;48.720;9.118;2023-06-26T10:43:41;96766.22;;;28.25;35.49
79242;BME280;68670;48.720;9.118;2023-06-26T10:46:11;96772.63;;;29.01;34.97
79242;BME280;68670;48.720;9.118;2023-06-26T10:48:59;96768.16;;;29.89;33.42
79242;BME280;68670;48.720;9.118;2023-06-26T10:51:27;96768.81;;;30.40;32.72
79242;BME280;68670;48.720;9.118;2023-06-26T10:54:00;96780.63;;;30.65;31.40
79242;BME280;68670;48.720;9.118;2023-06-26T10:56:44;96774.59;;;31.13;30.30
79242;BME280;68670;48.720;9.118;2023-06-26T11:01:45;96763.44;;;31.50;29.66
79242;BME280;68670;48.720;9.118;2023-06-26T11:04:13;96763.59;;;31.64;28.98
79242;BME280;68670;48.720;9.118;2023-06-26T11:06:46;96773.53;;;31.77;28.99
79242;BME280;68670;48.720;9.118;2023-06-26T11:09:15;96771.66;;;31.62;28.73
79242;BME280;68670;48.720;9.118;2023-06-26T11:14:19;96784.44;;;32.76;27.60
79242;BME280;68670;48.720;9.118;2023-06-26T11:16:48;96776.03;;;32.49;27.91
79242;BME280;68670;48.720;9.118;2023-06-26T11:19:17;96786.94;;;31.80;28.43
79242;BME280;68670;48.720;9.118;2023-06-26T11:21:45;96782.28;;;32.28;27.32
79242;BME280;68670;48.720;9.118;2023-06-26T11:24:14;96788.22;;;32.16;27.25
79242;BME280;68670;48.720;9.118;2023-06-26T11:26:44;96783.38;;;32.20;27.01
79242;BME280;68670;48.720;9.118;2023-06-26T11:29:11;96788.50;;;32.75;26.88
79242;BME280;68670;48.720;9.118;2023-06-26T11:31:38;96796.22;;;32.78;27.08
79242;BME280;68670;48.720;9.118;2023-06-26T11:34:05;96785.50;;;32.64;27.51
79242;BME280;68670;48.720;9.118;2023-06-26T11:36:32;96790.25;;;32.90;26.96
79242;BME280;68670;48.720;9.118;2023-06-26T11:39:03;96786.03;;;33.21;27.38
79242;BME280;68670;48.720;9.118;2023-06-26T11:41:31;96794.28;;;32.89;27.59
79242;BME280;68670;48.720;9.118;2023-06-26T11:44:05;96807.25;;;32.90;27.20
79242;BME280;68670;48.720;9.118;2023-06-26T11:46:32;96797.84;;;33.26;27.56
79242;BME280;68670;48.720;9.118;2023-06-26T11:48:57;96788.41;;;33.12;27.93
79242;BME280;68670;48.720;9.118;2023-06-26T11:51:23;96791.91;;;33.38;27.33
79242;BME280;68670;48.720;9.118;2023-06-26T11:53:48;96810.13;;;33.37;27.02
79242;BME280;68670;48.720;9.118;2023-06-26T11:56:15;96807.75;;;33.47;27.08
79242;BME280;68670;48.720;9.118;2023-06-26T11:59:04;96792.34;;;33.44;27.51
79242;BME280;68670;48.720;9.118;2023-06-26T12:01:37;96794.03;;;33.56;26.95
79242;BME280;68670;48.720;9.118;2023-06-26T12:04:05;96810.28;;;33.59;27.16
79242;BME280;68670;48.720;9.118;2023-06-26T12:06:32;96815.81;;;33.37;26.85
79242;BME280;68670;48.720;9.118;2023-06-26T12:09:04;96805.94;;;32.10;29.23
79242;BME280;68670;48.720;9.118;2023-06-26T12:11:31;96811.44;;;31.43;30.14
79242;BME280;68670;48.720;9.118;2023-06-26T12:13:58;96816.03;;;31.51;30.26
79242;BME280;68670;48.720;9.118;2023-06-26T12:16:30;96809.44;;;31.99;31.14
79242;BME280;68670;48.720;9.118;2023-06-26T12:19:05;96807.25;;;32.53;30.42
79242;BME280;68670;48.720;9.118;2023-06-26T12:24:00;96801.25;;;31.38;32.06
79242;BME280;68670;48.720;9.118;2023-06-26T12:26:27;96814.56;;;31.11;32.70
79242;BME280;68670;48.720;9.118;2023-06-26T12:28:53;96806.75;;;31.27;32.35
79242;BME280;68670;48.720;9.118;2023-06-26T12:31:21;96809.28;;;31.89;31.67
79242;BME280;68670;48.720;9.118;2023-06-26T12:33:49;96807.50;;;32.37;31.77
79242;BME280;68670;48.720;9.118;2023-06-26T12:36:17;96805.63;;;32.89;30.44
79242;BME280;68670;48.720;9.118;2023-06-26T12:38:45;96808.91;;;32.91;30.76
79242;BME280;68670;48.720;9.118;2023-06-26T12:41:14;96800.91;;;33.55;29.08
79242;BME280;68670;48.720;9.118;2023-06-26T12:43:42;96797.16;;;34.02;27.92
79242;BME280;68670;48.720;9.118;2023-06-26T12:46:10;96790.28;;;34.14;27.72
79242;BME280;68670;48.720;9.118;2023-06-26T12:48:39;96790.31;;;34.10;27.44
79242;BME280;68670;48.720;9.118;2023-06-26T12:51:17;96792.06;;;34.47;26.99
79242;BME280;68670;48.720;9.118;2023-06-26T12:53:43;96792.91;;;34.54;28.36
79242;BME280;68670;48.720;9.118;2023-06-26T12:56:10;96791.25;;;34.46;27.30
79242;BME280;68670;48.720;9.118;2023-06-26T12:58:37;96789.63;;;34.42;27.31
79242;BME280;68670;48.720;9.118;2023-06-26T13:01:07;96796.53;;;34.41;27.21
79242;BME280;68670;48.720;9.118;2023-06-26T13:03:42;96781.81;;;34.21;27.66
79242;BME280;68670;48.720;9.118;2023-06-26T13:06:07;96787.78;;;33.94;28.16
79242;BME280;68670;48.720;9.118;2023-06-26T13:08:33;96789.50;;;34.10;27.96
79242;BME280;68670;48.720;9.118;2023-06-26T13:10:59;96795.72;;;34.40;27.73
79242;BME280;68670;48.720;9.118;2023-06-26T13:13:24;96792.78;;;34.26;27.41
79242;BME280;68670;48.720;9.118;2023-06-26T13:15:52;96797.25;;;33.54;28.68
79242;BME280;68670;48.720;9.118;2023-06-26T13:18:17;96803.47;;;33.70;28.10
79242;BME280;68670;48.720;9.118;2023-06-26T13:20:42;96786.63;;;33.41;29.05